Time;durP1;ratioP1;P1;durP2;ratioP2;P2;SDS_P1;SDS_P2;PMS_P1;PMS_P2;Temp;Humidity;BMP_temperature;BMP_pressure;BME280_temperature;BME280_humidity;BME280_pressure;Samples;Min_cycle;Max_cycle;Signal;HPM_P1;HPM_P2
2024/02/20 00:02:08;;;;;;;36.65;6.75;;;8.20;99.90;;;6.84;100.00;101395.09;5010491;28;20084;-87
2024/02/20 00:57:52;;;;;;;39.80;7.60;;;8.40;99.90;;;7.04;100.00;101410.41;5033613;28;20095;-88
2024/02/20 01:13:48;;;;;;;33.78;8.18;;;8.40;99.90;;;7.01;100.00;101405.22;5000178;28;20076;-88
2024/02/20 03:08:34;;;;;;;22.95;7.10;;;8.30;99.90;;;6.84;100.00;101389.88;5024880;28;20053;-89
2024/02/20 03:11:43;;;;;;;21.25;6.32;;;;;;;6.87;100.00;101392.44;5009311;28;20026;-89
2024/02/20 03:14:22;;;;;;;;;;;;;;;;;;;;;
2024/02/20 03:20:48;;;;;;;27.88;6.38;;;8.20;99.90;;;6.76;100.00;101394.41;5024020;28;20072;-90
2024/02/20 03:30:41;;;;;;;22.02;5.20;;;8.10;99.90;;;6.65;100.00;101396.34;5057501;28;20750;-89
2024/02/20 03:33:23;;;;;;;16.67;5.13;;;8.10;99.90;;;6.60;100.00;101395.59;5040716;28;20060;-89
2024/02/20 03:36:02;;;;;;;19.20;5.57;;;;;;;6.61;100.00;101400.81;5096916;23;20041;-89
2024/02/20 03:39:24;;;;;;;;;;;;;;;;;;;;;
2024/02/20 03:48:30;;;;;;;12.93;4.45;;;8.00;99.90;;;6.51;100.00;101400.09;5044760;22;20057;-88
2024/02/20 03:51:12;;;;;;;10.05;3.65;;;;;;;6.51;100.00;101402.72;4932175;29;20059;-88
2024/02/20 03:56:50;;;;;;;10.43;2.58;;;;;;;6.57;100.00;101407.00;5037345;22;20061;-89
2024/02/20 03:59:41;;;;;;;8.45;2.20;;;8.00;99.90;;;6.49;100.00;101408.88;5009446;28;20037;-89
2024/02/20 04:03:21;;;;;;;;;;;;;;;;;;;;;
2024/02/20 04:06:50;;;;;;;;;;;;;;;;;;;;;
2024/02/20 04:14:11;;;;;;;3.47;0.70;;;10.40;99.90;;;6.02;100.00;101421.91;4920975;29;19926;-90
2024/02/20 04:20:30;;;;;;;3.75;0.95;;;7.70;99.90;;;6.27;100.00;101419.75;5035087;23;20053;-90
2024/02/20 04:30:44;;;;;;;1.63;0.60;;;7.60;99.90;;;5.95;100.00;101447.28;4947559;29;20536;-88
2024/02/20 04:33:22;;;;;;;1.83;0.80;;;;;;;5.93;100.00;101461.22;4929016;29;20676;-89
2024/02/20 04:36:51;;;;;;;5.22;0.95;;;;;;;5.91;100.00;101461.25;4953640;29;20027;-89
2024/02/20 04:40:00;;;;;;;2.10;0.95;;;7.50;99.90;;;5.80;100.00;101468.41;4859676;29;20046;-89
2024/02/20 04:48:30;;;;;;;2.65;1.65;;;;;;;5.51;100.00;101463.59;5041793;28;20052;-89
2024/02/20 04:52:01;;;;;;;5.53;1.90;;;7.10;99.90;;;5.45;100.00;101468.91;5017940;28;20120;-89
2024/02/20 04:54:39;;;;;;;5.72;1.58;;;;;;;5.39;100.00;101476.81;4923004;29;20035;-89
2024/02/20 05:01:22;;;;;;;5.20;1.60;;;;;;;5.32;100.00;101486.50;4955013;29;20049;-89
2024/02/20 05:04:30;;;;;;;2.95;1.75;;;7.00;99.90;;;5.28;100.00;101487.41;4945281;29;20043;-88
2024/02/20 05:07:31;;;;;;;4.20;1.98;;;7.00;99.90;;;5.33;100.00;101496.03;4878043;29;20045;-89
2024/02/20 05:13:02;;;;;;;8.23;3.22;;;;;;;5.34;100.00;101497.78;4838858;29;20052;-89
2024/02/20 05:15:28;;;;;;;5.53;2.30;;;;;;;5.29;100.00;101507.41;4839568;29;20034;-89
2024/02/20 05:18:52;;;;;;;;;;;;;;;;;;;;;
2024/02/20 05:22:32;;;;;;;;;;;;;;;;;;;;;
2024/02/20 05:25:22;;;;;;;10.85;3.83;;;;;;;5.19;100.00;101509.28;4826304;29;20045;-89
2024/02/20 05:27:58;;;;;;;;;;;;;;;;;;;;;
2024/02/20 05:30:28;;;;;;;9.18;4.15;;;;;;;5.13;100.00;101518.03;4824255;29;20061;-89
2024/02/20 05:33:23;;;;;;;7.10;3.05;;;6.80;99.90;;;5.05;100.00;101509.41;4865083;29;20068;-88
2024/02/20 05:35:58;;;;;;;10.75;3.28;;;6.70;99.90;;;5.10;100.00;101520.69;4865494;29;20048;-89
2024/02/20 05:38:42;;;;;;;13.25;3.90;;;;;;;5.11;100.00;101522.41;4849561;29;20047;-89
2024/02/20 05:48:02;;;;;;;30.58;7.40;;;;;;;5.26;100.00;101515.28;4848779;29;20094;-91
2024/02/20 06:01:50;;;;;;;13.60;5.63;;;;;;;5.23;100.00;101529.25;4745588;30;20154;-89
2024/02/20 06:04:19;;;;;;;22.77;6.25;;;;;;;5.22;100.00;101524.03;4704199;30;20045;-89
2024/02/20 06:08:01;;;;;;;21.02;5.53;;;6.80;99.90;;;5.21;100.00;101530.16;4717670;30;20075;-90
2024/02/20 06:11:32;;;;;;;13.13;4.70;;;6.80;99.90;;;5.19;100.00;101530.16;4733549;30;20049;-89
2024/02/20 06:14:10;;;;;;;18.92;6.20;;;;;;;5.23;100.00;101528.38;4712320;30;20060;-90
2024/02/20 06:19:11;;;;;;;13.27;4.93;;;6.80;99.90;;;5.23;100.00;101529.25;5086191;22;20218;-89
2024/02/20 06:25:32;;;;;;;;;;;;;;;;;;;;;
2024/02/20 06:28:02;;;;;;;15.13;4.10;;;;;;;5.29;100.00;101543.97;5020820;28;20275;-90
2024/02/20 06:31:09;;;;;;;10.90;4.03;;;;;;;5.30;100.00;101536.13;5006957;28;20029;-88
2024/02/20 06:34:21;;;;;;;21.33;5.82;;;5.40;99.90;;;5.37;100.00;101538.66;5005036;28;20408;-89
2024/02/20 06:36:51;;;;;;;17.58;5.05;;;;;;;5.39;100.00;101548.19;5005444;28;20034;-89
2024/02/20 06:39:47;;;;;;;10.52;4.20;;;7.00;99.90;;;5.33;100.00;101546.53;5014175;28;20116;-89
2024/02/20 06:43:12;;;;;;;8.93;4.00;;;7.00;99.90;;;5.34;100.00;101548.25;4992085;28;20034;-89
2024/02/20 06:45:53;;;;;;;13.32;4.32;;;;;;;5.34;100.00;101544.78;4921310;29;20039;-89
2024/02/20 06:48:20;;;;;;;15.88;5.55;;;;;;;5.44;100.00;101553.38;4918287;29;20160;-89
2024/02/20 07:02:11;;;;;;;13.27;3.85;;;6.90;99.90;;;5.33;100.00;101562.22;4875302;29;20069;-89
2024/02/20 07:05:03;;;;;;;10.43;4.47;;;;;;;5.37;100.00;101568.25;4875036;29;20087;-89
2024/02/20 07:11:22;;;;;;;;;;;;;;;;;;;;;
2024/02/20 07:13:50;;;;;;;9.88;3.45;;;7.00;99.90;;;5.43;100.00;101562.09;4876556;29;20051;-91
2024/02/20 07:37:00;;;;;;;;;;;7.20;99.90;;;5.50;100.00;101587.25;4955935;28;20125;-89
2024/02/20 07:43:12;;;;;;;16.05;4.03;;;;;;;5.48;100.00;101594.25;4912289;29;20462;-90
2024/02/20 07:45:38;;;;;;;21.27;4.85;;;7.10;99.90;;;5.48;100.00;101605.53;4816864;29;20104;-89
2024/02/20 07:49:19;;;;;;;18.60;4.35;;;7.10;99.90;;;5.51;100.00;101605.53;4805947;29;20055;-91
2024/02/20 07:55:56;;;;;;;;;;;;;;;;;;;;;
2024/02/20 07:58:40;;;;;;;8.75;3.33;;;;;;;5.53;100.00;101609.00;4804111;29;20053;-88
2024/02/20 08:05:03;;;;;;;15.25;3.58;;;7.20;99.90;;;5.71;100.00;101613.13;4781332;30;20050;-88
2024/02/20 08:07:41;;;;;;;8.00;1.85;;;;;;;5.61;100.00;101618.47;4772601;30;20079;-89
2024/02/20 08:10:11;;;;;;;16.02;2.65;;;;;;;5.66;100.00;101621.88;4777308;29;20039;-90
2024/02/20 08:16:45;;;;;;;;;;;;;;;;;;;;;
2024/02/20 08:20:00;;;;;;;10.57;2.13;;;7.20;99.90;;;5.55;100.00;101630.75;4830453;29;20428;-89
2024/02/20 08:25:34;;;;;;;22.67;3.20;;;;;;;5.52;100.00;101635.97;4845290;29;20106;-91
2024/02/20 08:28:00;;;;;;;20.48;2.53;;;;;;;5.52;100.00;101635.13;4856989;29;20044;-90
2024/02/20 08:33:51;;;;;;;26.13;3.35;;;7.10;99.90;;;5.54;100.00;101647.28;5056631;23;20636;-90
2024/02/20 08:40:32;;;;;;;20.55;3.00;;;7.10;99.90;;;5.60;100.00;101648.13;4918399;29;20099;-89
2024/02/20 08:43:12;;;;;;;28.35;2.90;;;;;;;5.67;100.00;101658.47;4911312;29;20040;-89
2024/02/20 08:49:51;;;;;;;30.52;3.40;;;7.10;99.90;;;5.61;100.00;101640.22;4895883;29;20051;-90
2024/02/20 08:59:22;;;;;;;;;;;;;;;;;;;;;
2024/02/20 09:06:05;;;;;;;;;;;;;;;;;;;;;
2024/02/20 09:08:31;;;;;;;31.35;3.65;;;;;;;5.75;100.00;101655.78;4840591;29;20048;-89
2024/02/20 09:11:22;;;;;;;;;;;;;;;;;;;;;
2024/02/20 09:14:19;;;;;;;;;;;;;;;;;;;;;
2024/02/20 09:32:03;;;;;;;19.50;2.88;;;7.20;99.90;;;5.44;100.00;101673.50;4728804;30;20087;-88
2024/02/20 09:35:14;;;;;;;21.10;3.30;;;7.10;99.90;;;5.49;100.00;101680.44;4697098;30;20300;-90
2024/02/20 09:37:50;;;;;;;33.20;3.53;;;;;;;5.59;100.00;101673.34;4657373;30;20046;-90
2024/02/20 09:41:20;;;;;;;;;;;7.20;99.90;;;5.51;100.00;101681.28;4673746;30;20767;-88
2024/02/20 09:48:16;;;;;;;;;;;;;;;;;;;;;
2024/02/20 09:58:24;;;;;;;25.35;2.88;;;7.30;99.90;;;5.82;100.00;101695.78;4950984;29;20393;-89
2024/02/20 10:01:03;;;;;;;20.60;2.53;;;;;;;5.70;100.00;101691.53;4951472;29;20114;-88
2024/02/20 10:07:40;;;;;;;;;;;;;;;;;;;;;
2024/02/20 10:10:42;;;;;;;24.73;2.97;;;7.50;99.90;;;5.93;100.00;101689.50;4934245;28;20039;-89
2024/02/20 10:13:21;;;;;;;12.73;1.83;;;;;;;5.91;100.00;101698.28;4928187;29;20039;-88
2024/02/20 10:20:15;;;;;;;24.45;1.90;;;7.50;99.90;;;5.98;100.00;101704.31;4892901;29;20042;-88
2024/02/20 10:22:43;;;;;;;19.83;2.88;;;7.60;99.90;;;6.02;100.00;101700.78;4893870;29;20096;-89
2024/02/20 10:25:21;;;;;;;32.42;2.95;;;;;;;6.13;100.00;101702.41;4985528;23;20060;-89
2024/02/20 10:29:21;;;;;;;21.08;3.13;;;7.70;99.90;;;6.30;100.00;101699.53;5062533;28;20044;-89
2024/02/20 10:32:02;;;;;;;23.00;3.13;;;;;;;6.22;100.00;101704.03;4924784;29;20055;-89
2024/02/20 10:35:14;;;;;;;25.42;3.17;;;7.80;99.90;;;6.41;100.00;101706.38;4920189;29;20220;-89
2024/02/20 10:38:21;;;;;;;29.63;3.40;;;7.90;99.90;;;6.61;100.00;101707.00;4812618;29;20050;-89
2024/02/20 10:40:51;;;;;;;34.70;3.47;;;;;;;6.70;100.00;101708.59;4797728;29;20039;-88
2024/02/20 10:47:09;;;;;;;17.38;2.00;;;8.10;99.90;;;6.48;100.00;101714.16;4792305;29;20119;-88
2024/02/20 10:49:40;;;;;;;28.67;4.38;;;8.10;99.90;;;6.49;100.00;101708.00;4788892;29;20047;-88
2024/02/20 10:54:43;;;;;;;21.38;2.63;;;8.00;99.90;;;6.42;100.00;101708.13;5017595;28;20041;-80
2024/02/20 10:57:17;;;;;;;34.92;4.10;;;8.10;99.90;;;6.55;100.00;101704.47;5007224;28;20028;-80
2024/02/20 10:59:58;;;;;;;23.30;2.70;;;8.10;99.90;;;6.55;100.00;101707.06;5003230;28;20068;-80
2024/02/20 11:02:27;;;;;;;29.55;3.92;;;8.10;99.90;;;6.71;100.00;101707.72;4987196;28;20068;-81
2024/02/20 11:05:04;;;;;;;40.35;5.38;;;8.20;99.90;;;6.92;100.00;101706.53;4985965;28;20037;-81
2024/02/20 11:07:34;;;;;;;33.70;3.80;;;8.30;99.90;;;6.93;100.00;101703.00;4987745;28;20053;-80
2024/02/20 11:10:25;;;;;;;48.70;4.82;;;8.40;99.90;;;7.07;100.00;101708.03;4980995;28;20085;-80
2024/02/20 11:12:51;;;;;;;37.22;4.97;;;8.50;99.90;;;7.21;100.00;101699.94;5018133;28;20033;-80
2024/02/20 11:15:28;;;;;;;31.60;4.55;;;8.60;99.90;;;7.29;100.00;101703.28;4999682;28;20034;-81
2024/02/20 11:17:54;;;;;;;33.28;3.45;;;8.70;99.90;;;7.19;100.00;101703.47;4988790;28;20037;-80
2024/02/20 11:20:26;;;;;;;25.35;3.15;;;8.70;99.90;;;7.10;100.00;101702.72;4986124;28;20048;-81
2024/02/20 11:22:51;;;;;;;39.05;5.63;;;8.70;99.90;;;7.24;100.00;101707.75;4999247;28;20117;-80
2024/02/20 11:25:30;;;;;;;38.38;4.45;;;8.70;99.90;;;7.23;100.00;101703.38;4999074;28;20488;-81
2024/02/20 11:27:56;;;;;;;55.88;5.60;;;8.70;99.90;;;7.29;100.00;101698.91;4996891;28;20060;-81
2024/02/20 11:30:24;;;;;;;38.17;4.72;;;8.70;99.90;;;7.35;100.00;101692.72;4981325;28;20447;-80
2024/02/20 11:33:10;;;;;;;41.63;5.03;;;8.80;99.90;;;7.39;100.00;101697.00;4999010;28;20033;-80
2024/02/20 11:35:39;;;;;;;32.42;4.65;;;8.70;99.90;;;7.33;100.00;101705.81;4983747;28;20037;-81
2024/02/20 11:38:07;;;;;;;46.15;5.07;;;8.70;99.90;;;7.38;100.00;101701.34;4999654;28;20065;-79
2024/02/20 11:40:34;;;;;;;33.15;4.20;;;8.80;99.90;;;7.43;100.00;101696.06;4983256;28;20033;-81
2024/02/20 11:43:10;;;;;;;46.13;6.07;;;8.80;99.90;;;7.52;100.00;101684.53;4998827;28;20026;-80
2024/02/20 11:45:38;;;;;;;39.08;4.75;;;8.90;99.90;;;7.60;100.00;101688.75;5001029;28;20436;-80
2024/02/20 11:48:17;;;;;;;43.53;5.63;;;;;;;7.60;100.00;101686.13;5015915;28;20034;-81
2024/02/20 11:50:44;;;;;;;33.42;4.18;;;8.90;99.90;;;7.52;100.00;101681.94;5017932;28;20060;-81
2024/02/20 11:53:19;;;;;;;57.47;6.65;;;8.90;99.90;;;7.47;100.00;101683.75;4986429;28;20033;-79
2024/02/20 11:55:51;;;;;;;41.03;5.55;;;8.90;99.90;;;7.56;100.00;101683.59;4982822;28;20403;-81
2024/02/20 11:58:20;;;;;;;41.38;4.63;;;9.00;99.90;;;7.62;100.00;101678.22;4999446;28;20456;-80
2024/02/20 12:00:48;;;;;;;36.67;4.45;;;9.00;99.90;;;7.76;100.00;101677.97;4985516;28;20069;-81
2024/02/20 12:03:42;;;;;;;54.38;5.95;;;9.10;99.90;;;7.91;100.00;101682.03;5000268;28;20031;-81
2024/02/20 12:06:09;;;;;;;43.42;5.63;;;9.20;99.90;;;7.95;100.00;101686.34;5005061;28;20034;-80
2024/02/20 12:08:41;;;;;;;48.97;4.65;;;9.30;99.90;;;8.09;100.00;101680.78;4982582;28;20049;-80
2024/02/20 12:11:13;;;;;;;38.47;4.85;;;9.40;99.90;;;8.14;100.00;101679.81;4996088;28;20034;-81
2024/02/20 12:13:40;;;;;;;45.72;4.72;;;9.50;99.90;;;8.19;100.00;101682.34;4981185;28;20049;-80
2024/02/20 12:16:17;;;;;;;40.92;4.70;;;9.50;99.90;;;8.26;100.00;101675.19;4978234;28;20030;-81
2024/02/20 12:18:49;;;;;;;44.78;5.20;;;9.50;99.90;;;8.27;100.00;101674.28;4999329;28;20041;-80
2024/02/20 12:21:15;;;;;;;41.90;4.95;;;9.60;99.90;;;8.27;100.00;101669.03;4985048;28;20033;-81
2024/02/20 12:23:52;;;;;;;37.03;4.97;;;9.60;99.90;;;8.21;100.00;101677.91;4983599;28;20041;-81
2024/02/20 12:26:19;;;;;;;56.13;5.65;;;9.60;99.90;;;8.25;100.00;101676.06;4983032;28;20377;-81
2024/02/20 12:28:46;;;;;;;38.42;4.82;;;9.50;99.90;;;8.24;100.00;101679.59;4998747;28;20495;-81
2024/02/20 12:31:24;;;;;;;37.83;4.88;;;9.50;99.90;;;8.05;100.00;101674.72;5000054;28;20141;-80
2024/02/20 12:33:51;;;;;;;40.80;4.20;;;9.50;99.90;;;8.01;100.00;101678.31;4999355;28;20503;-79
2024/02/20 12:36:18;;;;;;;33.03;4.00;;;9.40;99.90;;;7.95;100.00;101686.34;4997928;28;20642;-81
2024/02/20 12:38:53;;;;;;;36.42;4.00;;;9.40;99.90;;;8.03;100.00;101687.00;5001060;28;20033;-80
2024/02/20 12:41:19;;;;;;;51.38;5.75;;;9.40;99.90;;;8.12;100.00;101683.34;4983269;28;20025;-81
2024/02/20 12:43:45;;;;;;;38.83;5.05;;;9.50;99.90;;;8.13;100.00;101685.94;4989536;28;20076;-81
2024/02/20 12:46:11;;;;;;;41.40;4.60;;;9.50;99.90;;;8.23;100.00;101689.25;5004283;28;20559;-81
2024/02/20 12:48:42;;;;;;;35.92;4.43;;;9.60;99.90;;;8.31;100.00;101684.66;4984771;28;20057;-81
2024/02/20 12:51:09;;;;;;;35.78;4.00;;;9.60;99.90;;;8.33;100.00;101685.50;5005658;28;20021;-79
2024/02/20 12:53:35;;;;;;;31.30;4.07;;;9.70;99.90;;;8.25;100.00;101684.84;5023742;23;20140;-81
2024/02/20 12:56:03;;;;;;;35.38;4.55;;;9.70;99.90;;;8.39;100.00;101685.38;5017078;28;20025;-81
2024/02/20 12:58:40;;;;;;;47.30;6.97;;;9.70;99.90;;;8.38;100.00;101693.28;5014893;28;20029;-81
2024/02/20 13:01:16;;;;;;;47.80;4.88;;;9.70;99.90;;;8.30;100.00;101689.97;5026193;28;20021;-81
2024/02/20 13:03:42;;;;;;;;;;;9.70;99.90;;;8.08;99.28;101694.78;5014417;28;20455;-81
2024/02/20 13:06:08;;;;;;;35.40;4.33;;;9.60;99.90;;;8.14;99.64;101685.06;5020006;28;19913;-80
2024/02/20 13:08:34;;;;;;;34.45;4.03;;;9.70;99.90;;;8.15;99.61;101685.91;4994701;28;20014;-80
2024/02/20 13:10:59;;;;;;;48.63;6.25;;;9.70;99.90;;;8.30;100.00;101692.59;5026847;28;20037;-80
2024/02/20 13:13:30;;;;;;;36.45;5.05;;;9.70;99.90;;;8.41;100.00;101686.22;4996936;28;20167;-80
2024/02/20 13:15:56;;;;;;;49.80;5.20;;;9.70;99.90;;;8.38;100.00;101691.53;4986654;28;20452;-81
2024/02/20 13:18:21;;;;;;;40.65;5.40;;;9.70;99.90;;;8.45;99.87;101699.31;5002055;28;20108;-80
2024/02/20 13:20:50;;;;;;;47.13;6.15;;;9.80;99.90;;;8.55;99.79;101700.81;5005187;28;20091;-80
2024/02/20 13:23:15;;;;;;;39.55;5.40;;;9.90;99.90;;;8.47;99.21;101695.75;5019000;23;20053;-80
2024/02/20 13:25:49;;;;;;;30.85;4.40;;;9.90;99.90;;;8.54;98.95;101699.94;5014179;28;20041;-80
2024/02/20 13:28:17;;;;;;;32.42;3.55;;;9.90;99.90;;;8.40;98.49;101692.41;5013943;28;20037;-80
2024/02/20 13:30:43;;;;;;;38.90;4.63;;;9.90;99.90;;;8.45;98.18;101692.28;5027384;28;20026;-80
2024/02/20 13:33:14;;;;;;;36.38;4.65;;;9.80;99.90;;;8.41;98.14;101691.47;5009909;23;20049;-80
2024/02/20 13:35:39;;;;;;;33.08;5.05;;;9.80;99.90;;;8.35;97.55;101698.59;4989450;28;20030;-80
2024/02/20 13:38:08;;;;;;;39.95;4.45;;;9.80;99.90;;;8.39;97.62;101695.88;4969882;28;20177;-81
2024/02/20 13:40:33;;;;;;;40.92;5.30;;;9.80;99.90;;;8.45;97.93;101692.28;4989122;28;20037;-80
2024/02/20 13:43:02;;;;;;;40.67;4.72;;;9.80;99.90;;;8.40;97.06;101702.91;4987605;28;20031;-80
2024/02/20 13:45:47;;;;;;;34.70;4.57;;;9.70;99.90;;;8.32;96.93;101699.53;4965737;28;20542;-80
2024/02/20 13:48:15;;;;;;;35.08;3.92;;;9.70;99.90;;;8.36;97.19;101701.19;4982507;28;20053;-80
2024/02/20 13:50:51;;;;;;;31.60;5.63;;;9.70;99.90;;;8.22;97.17;101696.22;4965256;28;20045;-81
2024/02/20 13:53:19;;;;;;;43.28;5.43;;;9.70;99.90;;;8.36;97.40;101698.56;4962566;28;20038;-81
2024/02/20 13:55:49;;;;;;;41.88;5.25;;;9.70;99.90;;;8.39;97.60;101698.50;4971665;28;20049;-81
2024/02/20 13:58:17;;;;;;;41.85;3.70;;;9.70;99.90;;;8.40;98.14;101702.91;4966825;28;20567;-81
2024/02/20 14:00:47;;;;;;;33.78;5.80;;;9.70;99.90;;;8.29;97.46;101691.72;4965946;28;20042;-81
2024/02/20 14:03:24;;;;;;;30.40;3.92;;;9.70;99.90;;;8.24;97.19;101696.19;4964698;28;20026;-81
2024/02/20 14:05:50;;;;;;;29.17;4.05;;;9.60;99.90;;;8.16;96.86;101701.63;4983990;28;20034;-80
2024/02/20 14:08:16;;;;;;;23.98;3.90;;;9.60;99.90;;;8.20;97.19;101691.91;4980323;28;20571;-81
2024/02/20 14:10:43;;;;;;;28.15;3.88;;;9.60;99.90;;;8.19;97.11;101698.06;4965075;28;20025;-79
2024/02/20 14:13:15;;;;;;;27.98;3.75;;;9.60;99.90;;;8.13;97.24;101692.94;5000258;23;20048;-81
2024/02/20 14:15:41;;;;;;;22.65;2.78;;;9.60;99.90;;;8.13;97.12;101692.94;5024399;28;20025;-80
2024/02/20 14:18:09;;;;;;;23.48;3.63;;;9.70;99.90;;;8.18;96.65;101689.31;5037470;28;20025;-81
2024/02/20 14:20:35;;;;;;;16.42;2.85;;;9.70;99.90;;;8.22;96.38;101692.75;5040848;28;20403;-81
2024/02/20 14:23:06;;;;;;;33.15;3.80;;;9.70;99.90;;;8.25;96.35;101704.94;5033476;28;20037;-81
2024/02/20 14:25:34;;;;;;;30.27;4.28;;;9.70;99.90;;;8.26;96.57;101701.44;5010695;28;20453;-80
2024/02/20 14:28:00;;;;;;;24.85;3.85;;;9.70;99.90;;;8.18;96.46;101701.56;5021849;28;20045;-81
2024/02/20 14:30:28;;;;;;;29.42;3.67;;;9.70;99.90;;;8.18;95.23;101702.44;5017039;28;20022;-81
2024/02/20 14:33:03;;;;;;;26.63;3.40;;;9.70;99.90;;;8.21;95.16;101701.53;5028875;23;20465;-81
2024/02/20 14:35:29;;;;;;;21.45;3.05;;;;;;;8.10;94.57;101709.63;5002135;28;20041;-80
2024/02/20 14:37:56;;;;;;;17.38;3.00;;;9.70;99.90;;;8.12;94.58;101696.44;5012547;28;20148;-80
2024/02/20 14:40:25;;;;;;;28.77;3.80;;;9.60;99.90;;;8.16;93.79;101703.38;4989511;28;20562;-80
2024/02/20 14:42:51;;;;;;;17.95;3.38;;;9.60;99.90;;;8.16;92.98;101704.25;4999393;28;20453;-80
2024/02/20 14:45:17;;;;;;;35.70;3.97;;;9.60;99.90;;;8.16;92.41;101700.75;5007907;28;20108;-81
2024/02/20 14:47:45;;;;;;;18.65;2.60;;;9.60;99.90;;;8.07;92.74;101703.56;4985675;28;20033;-81
2024/02/20 14:50:11;;;;;;;22.88;3.08;;;9.60;99.90;;;8.20;92.87;101698.03;4987280;28;20113;-80
2024/02/20 14:52:43;;;;;;;24.65;3.35;;;9.60;99.90;;;8.21;92.50;101704.16;5003385;28;20084;-80
2024/02/20 14:55:13;;;;;;;26.38;3.67;;;9.70;99.90;;;8.27;91.76;101714.53;4992341;28;20037;-80
2024/02/20 14:57:41;;;;;;;33.65;3.45;;;9.70;99.90;;;8.30;91.60;101716.22;5020461;28;20071;-81
2024/02/20 15:00:11;;;;;;;24.52;3.30;;;9.80;99.90;;;8.44;91.44;101716.78;5002233;28;20037;-80
2024/02/20 15:02:36;;;;;;;17.25;2.58;;;9.80;99.90;;;8.28;90.82;101711.00;5007388;28;20068;-81
2024/02/20 15:05:08;;;;;;;24.67;2.92;;;9.70;99.90;;;8.20;90.94;101713.75;5002647;28;20055;-80
2024/02/20 15:07:39;;;;;;;30.85;3.45;;;9.80;99.90;;;8.31;91.56;101716.16;5015460;28;20038;-82
2024/02/20 15:10:09;;;;;;;24.90;3.38;;;9.80;99.90;;;8.38;91.75;101712.53;5001152;28;20041;-81
2024/02/20 15:12:39;;;;;;;21.63;2.80;;;9.80;99.90;;;8.40;91.82;101718.66;4987928;28;20053;-82
2024/02/20 15:15:13;;;;;;;21.50;3.80;;;9.80;99.90;;;8.32;91.59;101715.28;4992877;28;20056;-82
2024/02/20 15:17:39;;;;;;;20.27;2.33;;;9.70;99.90;;;8.25;91.26;101712.81;5001446;28;20034;-81
2024/02/20 15:20:11;;;;;;;25.23;3.67;;;9.80;99.90;;;8.37;91.37;101715.19;4993404;28;20503;-80
2024/02/20 15:22:40;;;;;;;20.02;2.38;;;9.80;99.90;;;8.20;91.93;101715.53;5000992;28;20034;-82
2024/02/20 15:25:15;;;;;;;22.67;3.40;;;9.70;99.90;;;8.13;91.79;101714.78;4994097;28;20109;-82
2024/02/20 15:27:43;;;;;;;22.88;3.10;;;9.60;99.90;;;8.14;92.31;101713.03;4990754;28;20033;-81
2024/02/20 15:30:09;;;;;;;17.80;2.40;;;9.60;99.90;;;8.04;92.78;101720.25;4987354;28;20028;-81
2024/02/20 15:32:35;;;;;;;23.40;3.05;;;9.60;99.90;;;8.13;92.67;101716.56;4993950;28;20029;-81
2024/02/20 15:35:09;;;;;;;26.83;3.75;;;9.60;99.90;;;8.22;92.56;101716.34;5000768;28;20026;-81
2024/02/20 15:37:37;;;;;;;28.88;3.42;;;9.60;99.90;;;8.17;92.10;101718.22;4989207;28;20037;-81
2024/02/20 15:40:10;;;;;;;22.60;3.05;;;9.60;99.90;;;8.01;91.46;101712.41;4992302;28;20026;-81
2024/02/20 15:42:40;;;;;;;28.83;3.22;;;9.60;99.90;;;8.11;91.23;101723.59;5004265;28;20069;-81
2024/02/20 15:45:06;;;;;;;23.25;3.00;;;9.50;99.90;;;8.04;91.38;101715.00;4984662;28;20028;-81
2024/02/20 15:47:35;;;;;;;17.83;2.67;;;9.40;99.90;;;7.83;91.40;101711.03;4992662;28;20404;-81
2024/02/20 15:50:04;;;;;;;28.90;3.35;;;9.40;99.90;;;7.89;91.57;101721.41;4993056;28;20116;-80
2024/02/20 15:52:30;;;;;;;27.88;3.50;;;9.30;99.90;;;7.82;91.62;101709.31;5019702;28;20116;-81
2024/02/20 15:55:00;;;;;;;26.88;3.33;;;9.30;99.90;;;7.71;91.29;101717.38;4989296;28;20026;-81
2024/02/20 15:57:33;;;;;;;25.52;3.22;;;9.20;99.90;;;7.83;91.78;101711.03;5002255;28;20037;-82
2024/02/20 15:59:59;;;;;;;36.75;4.10;;;9.20;99.90;;;7.86;91.70;101716.22;4990845;28;20022;-79
2024/02/20 16:02:25;;;;;;;30.52;3.80;;;9.20;99.90;;;7.83;91.64;101708.41;4999863;28;20112;-79
2024/02/20 16:04:50;;;;;;;22.95;3.58;;;9.20;99.90;;;7.69;91.86;101708.69;4992369;28;20768;-79
2024/02/20 16:07:22;;;;;;;25.63;3.47;;;9.10;99.90;;;7.60;92.60;101708.84;5002986;28;20044;-80
2024/02/20 16:09:53;;;;;;;34.78;4.18;;;9.00;99.90;;;7.55;92.93;101706.28;4987069;28;20117;-78
2024/02/20 16:12:19;;;;;;;25.80;3.58;;;9.00;99.90;;;7.50;92.93;101709.91;4988992;28;20659;-80
2024/02/20 16:14:52;;;;;;;28.48;3.25;;;8.90;99.90;;;7.58;93.49;101710.63;5003499;28;20022;-80
2024/02/20 16:17:21;;;;;;;27.95;3.90;;;8.90;99.90;;;7.55;93.51;101708.91;4988826;28;20088;-79
2024/02/20 16:19:48;;;;;;;33.25;3.90;;;8.90;99.90;;;7.53;93.51;101713.31;5005814;28;20053;-80
2024/02/20 16:22:20;;;;;;;35.80;4.72;;;8.80;99.90;;;7.47;93.99;101723.91;4996675;28;20036;-79
2024/02/20 16:24:48;;;;;;;35.22;3.60;;;8.80;99.90;;;7.44;94.30;101723.97;4988089;28;20091;-80
2024/02/20 16:27:16;;;;;;;29.92;3.95;;;8.80;99.90;;;7.40;94.10;101711.81;5007679;28;20108;-79
2024/02/20 16:29:42;;;;;;;30.33;3.42;;;8.80;99.90;;;7.38;94.75;101711.84;5003586;28;20032;-78
2024/02/20 16:32:11;;;;;;;30.25;4.47;;;8.70;99.90;;;7.34;94.92;101718.06;5005911;28;20025;-79
2024/02/20 16:34:37;;;;;;;32.60;4.25;;;8.70;99.90;;;7.37;95.41;101722.38;5007928;28;20041;-79
2024/02/20 16:37:04;;;;;;;26.73;3.58;;;8.70;99.90;;;7.39;95.54;101721.44;5007639;28;20030;-79
2024/02/20 16:39:29;;;;;;;27.58;3.65;;;8.70;99.90;;;7.42;95.98;101728.38;4995132;28;20152;-80
2024/02/20 16:41:55;;;;;;;29.48;3.67;;;8.80;99.90;;;7.43;95.96;101721.38;5006519;28;20058;-80
2024/02/20 16:44:24;;;;;;;28.70;3.70;;;8.80;99.90;;;7.43;96.47;101726.63;5007528;28;20030;-79
2024/02/20 16:46:49;;;;;;;35.15;4.18;;;8.80;99.90;;;7.46;96.91;101721.34;4999264;28;20480;-78
2024/02/20 16:49:15;;;;;;;36.25;3.83;;;8.80;99.90;;;7.50;96.69;101718.63;5005169;28;20037;-79
2024/02/20 16:51:41;;;;;;;39.30;5.00;;;8.80;99.90;;;7.50;96.64;101720.41;5006605;28;20389;-78
2024/02/20 16:54:07;;;;;;;32.10;4.38;;;8.80;99.90;;;7.48;96.93;101717.78;5003339;28;20112;-79
2024/02/20 16:56:33;;;;;;;34.10;4.65;;;8.80;99.90;;;7.48;96.61;101722.19;5005996;28;20025;-77
2024/02/20 16:58:58;;;;;;;23.08;3.65;;;8.80;99.90;;;7.47;96.34;101723.91;4986764;28;20053;-78
2024/02/20 17:01:30;;;;;;;34.35;3.88;;;8.80;99.90;;;7.50;96.57;101728.25;5021916;28;20117;-80
2024/02/20 17:03:55;;;;;;;33.65;4.25;;;8.80;99.90;;;7.50;96.89;101720.41;5008020;28;20037;-79
2024/02/20 17:06:21;;;;;;;32.58;4.32;;;8.80;99.90;;;7.49;96.63;101726.50;4990327;28;20112;-78
2024/02/20 17:08:47;;;;;;;22.45;3.47;;;8.80;99.90;;;7.47;96.57;101723.06;5009345;28;20040;-79
2024/02/20 17:11:13;;;;;;;31.55;5.40;;;8.80;99.90;;;7.45;96.81;101717.88;5009095;28;20044;-79
2024/02/20 17:13:39;;;;;;;32.35;5.47;;;8.80;99.90;;;7.45;97.54;101724.84;5004836;28;20021;-80
2024/02/20 17:16:09;;;;;;;35.90;4.25;;;8.80;99.90;;;7.45;97.59;101719.59;5006772;28;20051;-80
2024/02/20 17:18:35;;;;;;;31.35;5.43;;;8.70;99.90;;;7.41;97.21;101718.81;5000891;28;20037;-79
2024/02/20 17:21:01;;;;;;;39.85;6.00;;;8.80;99.90;;;7.39;97.54;101723.22;4990775;28;20041;-79
2024/02/20 17:23:26;;;;;;;32.83;4.78;;;8.70;99.90;;;7.38;98.30;101718.84;4993984;28;20039;-79
2024/02/20 17:25:53;;;;;;;40.72;4.70;;;8.70;99.90;;;7.35;97.84;101711.91;5013160;28;20038;-79
2024/02/20 17:28:19;;;;;;;33.47;4.60;;;8.70;99.90;;;7.33;98.14;101708.44;4986452;28;20113;-78
2024/02/20 17:30:50;;;;;;;33.15;5.68;;;8.60;99.90;;;7.29;98.41;101709.38;5009221;28;20530;-79
2024/02/20 17:33:16;;;;;;;40.30;6.40;;;8.60;99.90;;;7.25;98.20;101706.84;4989537;28;20518;-80
2024/02/20 17:35:42;;;;;;;42.97;7.30;;;8.50;99.90;;;7.19;97.97;101711.31;4989173;28;20120;-79
2024/02/20 17:38:07;;;;;;;41.17;7.20;;;8.50;99.90;;;7.13;98.31;101707.94;4995854;28;20144;-80
2024/02/20 17:40:33;;;;;;;40.40;6.85;;;8.50;99.90;;;7.11;99.20;101713.19;4991943;28;20025;-79